createdAt,value
2022-09-18T00:00:45.242Z,9.365859
2022-09-18T00:01:45.220Z,9.365696
2022-09-18T00:02:45.263Z,9.365615
2022-09-18T00:03:45.181Z,9.365799
2022-09-18T00:04:45.153Z,9.366162
2022-09-18T00:05:45.155Z,9.366140
2022-09-18T00:06:45.141Z,9.365967
2022-09-18T00:07:45.106Z,9.365885
2022-09-18T00:08:45.110Z,9.365995
2022-09-18T00:09:45.092Z,9.366065
2022-09-18T00:10:45.088Z,9.365939
2022-09-18T00:11:45.105Z,9.366101
2022-09-18T00:12:45.051Z,9.365937
2022-09-18T00:13:45.156Z,9.365997
2022-09-18T00:14:45.047Z,9.366014
2022-09-18T00:15:45.059Z,9.366026
2022-09-18T00:16:45.045Z,9.366012
2022-09-18T00:17:45.043Z,9.365981
2022-09-18T00:18:44.994Z,9.365857
2022-09-18T00:19:44.990Z,9.365966
2022-09-18T00:20:44.990Z,9.365950
2022-09-18T00:21:44.992Z,9.365609
2022-09-18T00:22:44.950Z,9.365830
2022-09-18T00:23:44.948Z,9.365851
2022-09-18T00:24:44.975Z,9.366043
2022-09-18T00:25:44.926Z,9.366081
2022-09-18T00:26:44.958Z,9.366226
2022-09-18T00:27:44.907Z,9.366127
2022-09-18T00:28:44.911Z,9.366024
2022-09-18T00:29:44.968Z,9.365952
2022-09-18T00:30:44.872Z,9.366018
2022-09-18T00:31:44.930Z,9.365936
2022-09-18T00:32:44.873Z,9.365899
2022-09-18T00:33:44.828Z,9.365974
2022-09-18T00:34:44.819Z,9.365946
2022-09-18T00:35:44.825Z,9.365985
2022-09-18T00:36:44.807Z,9.366029
2022-09-18T00:37:44.824Z,9.366017
2022-09-18T00:38:44.775Z,9.366032
2022-09-18T00:39:44.760Z,9.365958
2022-09-18T00:40:44.795Z,9.365838
2022-09-18T00:41:44.754Z,9.365872
2022-09-18T00:42:44.750Z,9.365998
2022-09-18T00:43:44.742Z,9.365980
2022-09-18T00:44:44.711Z,9.365944
2022-09-18T00:45:44.779Z,9.366037
2022-09-18T00:46:44.718Z,9.366020
2022-09-18T00:47:44.727Z,9.366081
2022-09-18T00:48:44.688Z,9.366023
2022-09-18T00:49:44.657Z,9.366100
2022-09-18T00:50:44.630Z,9.366013
2022-09-18T00:51:44.641Z,9.366346
2022-09-18T00:52:44.680Z,9.366109
2022-09-18T00:53:44.625Z,9.365827
2022-09-18T00:54:44.776Z,9.366080
2022-09-18T00:55:44.592Z,9.366080
2022-09-18T00:56:44.572Z,9.366040
2022-09-18T00:57:44.574Z,9.366044
2022-09-18T00:58:44.579Z,9.366116
2022-09-18T00:59:44.560Z,9.366199
2022-09-18T01:00:44.668Z,9.366150
2022-09-18T01:01:44.675Z,9.366131
2022-09-18T01:02:44.539Z,9.366052
2022-09-18T01:03:44.534Z,9.365891
2022-09-18T01:04:44.494Z,9.366027
2022-09-18T01:05:44.491Z,9.365933
2022-09-18T01:06:44.479Z,9.365996
2022-09-18T01:07:44.482Z,9.365969
2022-09-18T01:08:44.490Z,9.365988
2022-09-18T01:09:44.439Z,9.366011
2022-09-18T01:10:44.435Z,9.366018
2022-09-18T01:11:44.417Z,9.366005
2022-09-18T01:12:44.403Z,9.365994
2022-09-18T01:13:44.438Z,9.366014
2022-09-18T01:14:44.405Z,9.366015
2022-09-18T01:15:44.425Z,9.366161
2022-09-18T01:16:44.361Z,9.366085
2022-09-18T01:17:44.408Z,9.366279
2022-09-18T01:18:44.371Z,9.365824
2022-09-18T01:19:44.351Z,9.366095
2022-09-18T01:20:44.310Z,9.366125
2022-09-18T01:21:44.312Z,9.366234
2022-09-18T01:22:44.294Z,9.366385
2022-09-18T01:23:44.302Z,9.366236
2022-09-18T01:24:44.292Z,9.366104
2022-09-18T01:25:44.272Z,9.366035
2022-09-18T01:26:44.250Z,9.365946
2022-09-18T01:27:44.254Z,9.365742
2022-09-18T01:28:44.236Z,9.365474
2022-09-18T01:29:44.245Z,9.365285
2022-09-18T01:30:44.222Z,9.364477
2022-09-18T01:31:44.239Z,9.363776
2022-09-18T01:32:44.227Z,9.364009
2022-09-18T01:33:44.243Z,9.363829
2022-09-18T01:34:44.206Z,9.363577
2022-09-18T01:35:44.159Z,9.363641
2022-09-18T01:36:44.149Z,9.363518
2022-09-18T01:37:44.176Z,9.363752
2022-09-18T01:38:44.123Z,9.364570
2022-09-18T01:39:44.137Z,9.365610
2022-09-18T01:40:44.117Z,9.365980
2022-09-18T01:41:44.089Z,9.365955
2022-09-18T01:42:44.108Z,9.365997
2022-09-18T01:43:44.054Z,9.366068
2022-09-18T01:44:44.064Z,9.365928
2022-09-18T01:45:44.084Z,9.366021
2022-09-18T01:46:44.061Z,9.366083
2022-09-18T01:47:44.031Z,9.366082
2022-09-18T01:48:45.093Z,9.366053
2022-09-18T01:49:44.083Z,9.366032
2022-09-18T01:50:44.047Z,9.365940
2022-09-18T01:51:43.980Z,9.365987
2022-09-18T01:52:43.956Z,9.365917
2022-09-18T01:53:43.954Z,9.365891
2022-09-18T01:54:44.948Z,9.365982
2022-09-18T01:55:43.984Z,9.365929
2022-09-18T01:56:43.942Z,9.365890
2022-09-18T01:57:43.937Z,9.366095
2022-09-18T01:58:43.915Z,9.365994
2022-09-18T01:59:43.906Z,9.366067
2022-09-18T02:00:43.919Z,9.366038
2022-09-18T02:01:44.104Z,9.365942
2022-09-18T02:02:43.932Z,9.366212
2022-09-18T02:03:43.876Z,9.366035
2022-09-18T02:04:43.854Z,9.366029
2022-09-18T02:05:44.021Z,9.365966
2022-09-18T02:06:43.849Z,9.366043
2022-09-18T02:07:43.798Z,9.365924
2022-09-18T02:08:43.789Z,9.366052
2022-09-18T02:09:43.774Z,9.365854
2022-09-18T02:10:43.776Z,9.365909
2022-09-18T02:11:43.782Z,9.365955
2022-09-18T02:12:44.116Z,9.366115
2022-09-18T02:13:43.713Z,9.365935
2022-09-18T02:14:43.727Z,9.366038
2022-09-18T02:15:43.734Z,9.366218
2022-09-18T02:16:43.735Z,9.366163
2022-09-18T02:17:43.690Z,9.366170
2022-09-18T02:18:43.705Z,9.366172
2022-09-18T02:19:43.650Z,9.365990
2022-09-18T02:20:43.653Z,9.365960
2022-09-18T02:21:44.034Z,9.365968
2022-09-18T02:22:43.650Z,9.365839
2022-09-18T02:23:43.622Z,9.365892
2022-09-18T02:24:46.227Z,9.366032
2022-09-18T02:25:43.605Z,9.365948
2022-09-18T02:26:43.655Z,9.365982
2022-09-18T02:27:43.583Z,9.365665
2022-09-18T02:28:43.575Z,9.365803
2022-09-18T02:29:43.573Z,9.365859
2022-09-18T02:30:43.557Z,9.365991
2022-09-18T02:31:43.623Z,9.366074
2022-09-18T02:32:43.548Z,9.365959
2022-09-18T02:33:43.498Z,9.366014
2022-09-18T02:34:43.544Z,9.365981
2022-09-18T02:35:43.492Z,9.365881
2022-09-18T02:36:43.509Z,9.365926
2022-09-18T02:37:43.567Z,9.365974
2022-09-18T02:38:43.465Z,9.366068
2022-09-18T02:39:43.469Z,9.365851
2022-09-18T02:40:43.436Z,9.366081
2022-09-18T02:41:43.449Z,9.366053
2022-09-18T02:42:43.456Z,9.366159
2022-09-18T02:43:43.418Z,9.365912
2022-09-18T02:44:43.421Z,9.366073
2022-09-18T02:45:43.391Z,9.365861
2022-09-18T02:46:43.451Z,9.365826
2022-09-18T02:47:43.417Z,9.365781
2022-09-18T02:48:43.356Z,9.365781
2022-09-18T02:49:43.353Z,9.365781
2022-09-18T02:50:43.329Z,9.365781
2022-09-18T02:51:43.347Z,9.365930
2022-09-18T02:52:43.344Z,9.365984
2022-09-18T02:53:44.382Z,9.365953
2022-09-18T02:54:43.292Z,9.365929
2022-09-18T02:55:43.265Z,9.365921
2022-09-18T02:56:43.294Z,9.365978
2022-09-18T02:57:43.283Z,9.365932
2022-09-18T02:58:43.254Z,9.365861
2022-09-18T02:59:43.235Z,9.365997
2022-09-18T03:00:43.227Z,9.366014
2022-09-18T03:01:43.356Z,9.366039
2022-09-18T03:02:43.252Z,9.366068
2022-09-18T03:03:43.212Z,9.366064
2022-09-18T03:04:43.181Z,9.366081
2022-09-18T03:05:43.178Z,9.366085
2022-09-18T03:06:43.164Z,9.366035
2022-09-18T03:07:43.804Z,9.365991
2022-09-18T03:08:43.145Z,9.366015
2022-09-18T03:09:43.205Z,9.365980
2022-09-18T03:10:43.122Z,9.366012
2022-09-18T03:11:43.099Z,9.366117
2022-09-18T03:12:43.106Z,9.366038
2022-09-18T03:13:43.077Z,9.366022
2022-09-18T03:14:43.059Z,9.366036
2022-09-18T03:15:43.121Z,9.366085
2022-09-18T03:16:43.618Z,9.366111
2022-09-18T03:17:43.056Z,9.366080
2022-09-18T03:18:43.000Z,9.366134
2022-09-18T03:19:43.013Z,9.366051
2022-09-18T03:20:42.989Z,9.366079
2022-09-18T03:21:42.984Z,9.366138
2022-09-18T03:22:42.985Z,9.366175
2022-09-18T03:23:45.557Z,9.366075
2022-09-18T03:24:42.961Z,9.366180
2022-09-18T03:25:43.021Z,9.366047
2022-09-18T03:26:43.930Z,9.366014
2022-09-18T03:27:42.943Z,9.366060
2022-09-18T03:28:42.907Z,9.365991
2022-09-18T03:29:42.894Z,9.365986
2022-09-18T03:30:42.895Z,9.366012
2022-09-18T03:31:42.888Z,9.366007
2022-09-18T03:32:42.914Z,9.366067
2022-09-18T03:33:42.843Z,9.366193
2022-09-18T03:34:42.840Z,9.366115
2022-09-18T03:35:42.819Z,9.366091
2022-09-18T03:36:42.806Z,9.366082
2022-09-18T03:37:42.798Z,9.366020
2022-09-18T03:38:42.831Z,9.366037
2022-09-18T03:39:42.780Z,9.365991
2022-09-18T03:40:47.169Z,9.365808
2022-09-18T03:41:42.856Z,9.366035
2022-09-18T03:42:42.738Z,9.366022
2022-09-18T03:43:43.746Z,9.365991
2022-09-18T03:44:42.739Z,9.366034
2022-09-18T03:45:42.710Z,9.366143
2022-09-18T03:46:42.768Z,9.366237
2022-09-18T03:47:42.700Z,9.366255
2022-09-18T03:48:42.731Z,9.366120
2022-09-18T03:49:42.669Z,9.366204
2022-09-18T03:50:42.661Z,9.366248
2022-09-18T03:51:42.640Z,9.366217
2022-09-18T03:52:42.636Z,9.366154
2022-09-18T03:53:42.664Z,9.366148
2022-09-18T03:54:42.626Z,9.366095
2022-09-18T03:55:42.606Z,9.366062
2022-09-18T03:56:42.594Z,9.366143
2022-09-18T03:57:42.667Z,9.366061
2022-09-18T03:58:42.580Z,9.366091
2022-09-18T03:59:42.577Z,9.366080
2022-09-18T04:00:42.535Z,9.366064
2022-09-18T04:01:42.589Z,9.365995
2022-09-18T04:02:42.602Z,9.365973
2022-09-18T04:03:42.517Z,9.366006
2022-09-18T04:04:42.533Z,9.365997
2022-09-18T04:05:42.508Z,9.365969
2022-09-18T04:06:42.497Z,9.365978
2022-09-18T04:07:42.488Z,9.365992
2022-09-18T04:08:42.466Z,9.365995
2022-09-18T04:09:42.494Z,9.366028
2022-09-18T04:10:42.472Z,9.366100
2022-09-18T04:11:42.442Z,9.366091
2022-09-18T04:12:42.422Z,9.366121
2022-09-18T04:13:42.488Z,9.366127
2022-09-18T04:14:42.458Z,9.366101
2022-09-18T04:15:42.413Z,9.366074
2022-09-18T04:16:42.385Z,9.366080
2022-09-18T04:17:42.400Z,9.366048
2022-09-18T04:18:42.353Z,9.366174
2022-09-18T04:19:42.345Z,9.366031
2022-09-18T04:20:42.345Z,9.365988
2022-09-18T04:21:42.314Z,9.365932
2022-09-18T04:22:42.305Z,9.366179
2022-09-18T04:23:42.307Z,9.366261
2022-09-18T04:24:42.278Z,9.366126
2022-09-18T04:25:42.297Z,9.366079
2022-09-18T04:26:42.259Z,9.366020
2022-09-18T04:27:42.271Z,9.366087
2022-09-18T04:28:42.233Z,9.366103
2022-09-18T04:29:42.293Z,9.366069
2022-09-18T04:30:42.240Z,9.365934
2022-09-18T04:31:42.294Z,9.366000
2022-09-18T04:32:42.210Z,9.366065
2022-09-18T04:33:42.168Z,9.365876
2022-09-18T04:34:42.178Z,9.365836
2022-09-18T04:35:42.198Z,9.365943
2022-09-18T04:36:42.173Z,9.365948
2022-09-18T04:37:42.161Z,9.365957
2022-09-18T04:38:42.148Z,9.366233
2022-09-18T04:39:42.155Z,9.366118
2022-09-18T04:40:42.247Z,9.366553
2022-09-18T04:41:42.109Z,9.366494
2022-09-18T04:42:42.075Z,9.366158
2022-09-18T04:43:42.070Z,9.365964
2022-09-18T04:44:42.067Z,9.365539
2022-09-18T04:45:42.127Z,9.365781
2022-09-18T04:46:42.098Z,9.365781
2022-09-18T04:47:42.020Z,9.365788
2022-09-18T04:48:42.032Z,9.365906
2022-09-18T04:49:42.023Z,9.365924
2022-09-18T04:50:42.007Z,9.365841
2022-09-18T04:51:43.370Z,9.365841
2022-09-18T04:52:41.977Z,9.365841
2022-09-18T04:53:41.980Z,9.365822
2022-09-18T04:54:41.982Z,9.365884
2022-09-18T04:55:41.949Z,9.365767
2022-09-18T04:56:41.967Z,9.365737
2022-09-18T04:57:41.928Z,9.366062
2022-09-18T04:58:41.911Z,9.365937
2022-09-18T04:59:41.888Z,9.366096
2022-09-18T05:00:42.086Z,9.365935
2022-09-18T05:01:42.009Z,9.365924
2022-09-18T05:02:41.892Z,9.365818
2022-09-18T05:03:41.870Z,9.365756
2022-09-18T05:04:41.836Z,9.365858
2022-09-18T05:05:41.839Z,9.366170
2022-09-18T05:06:41.891Z,9.366053
2022-09-18T05:07:41.814Z,9.365953
2022-09-18T05:08:41.802Z,9.365869
2022-09-18T05:09:41.945Z,9.365987
2022-09-18T05:10:41.758Z,9.365991
2022-09-18T05:11:41.782Z,9.365980
2022-09-18T05:12:41.772Z,9.365898
2022-09-18T05:13:41.739Z,9.365809
2022-09-18T05:14:41.740Z,9.365802
2022-09-18T05:15:41.773Z,9.365898
2022-09-18T05:16:41.731Z,9.365980
2022-09-18T05:17:41.801Z,9.365870
2022-09-18T05:18:41.690Z,9.365934
2022-09-18T05:19:41.691Z,9.366082
2022-09-18T05:20:41.678Z,9.366145
2022-09-18T05:21:41.657Z,9.366118
2022-09-18T05:22:41.684Z,9.366069
2022-09-18T05:23:41.761Z,9.366097
2022-09-18T05:24:41.630Z,9.366084
2022-09-18T05:25:42.606Z,9.366111
2022-09-18T05:26:41.608Z,9.366087
2022-09-18T05:27:41.643Z,9.365945
2022-09-18T05:28:41.579Z,9.366175
2022-09-18T05:29:41.581Z,9.366146
2022-09-18T05:30:41.546Z,9.366009
2022-09-18T05:31:41.652Z,9.366054
2022-09-18T05:32:41.543Z,9.366011
2022-09-18T05:33:41.626Z,9.366021
2022-09-18T05:34:41.529Z,9.365950
2022-09-18T05:35:41.502Z,9.365951
2022-09-18T05:36:41.499Z,9.366025
2022-09-18T05:37:41.507Z,9.366038
2022-09-18T05:38:41.485Z,9.366027
2022-09-18T05:39:41.444Z,9.365934
2022-09-18T05:40:41.479Z,9.366466
2022-09-18T05:41:41.466Z,9.366132
2022-09-18T05:42:41.412Z,9.365922
2022-09-18T05:43:41.501Z,9.365788
2022-09-18T05:44:41.402Z,9.365824
2022-09-18T05:45:41.389Z,9.366462
2022-09-18T05:46:41.458Z,9.366005
2022-09-18T05:47:41.363Z,9.365971
2022-09-18T05:48:42.414Z,9.365831
2022-09-18T05:49:41.416Z,9.365991
2022-09-18T05:50:41.344Z,9.365884
2022-09-18T05:51:41.326Z,9.365986
2022-09-18T05:52:41.308Z,9.365788
2022-09-18T05:53:41.339Z,9.365878
2022-09-18T05:54:41.336Z,9.365861
2022-09-18T05:55:41.267Z,9.365919
2022-09-18T05:56:41.279Z,9.366000
2022-09-18T05:57:41.250Z,9.365999
2022-09-18T05:58:41.265Z,9.366170
2022-09-18T05:59:41.277Z,9.365995
2022-09-18T06:00:41.219Z,9.365899
2022-09-18T06:01:44.928Z,9.365869
2022-09-18T06:02:41.278Z,9.365943
2022-09-18T06:03:41.206Z,9.365788
2022-09-18T06:04:41.188Z,9.365699
2022-09-18T06:05:41.242Z,9.365901
2022-09-18T06:06:41.154Z,9.366014
2022-09-18T06:07:41.134Z,9.365906
2022-09-18T06:08:41.130Z,9.366003
2022-09-18T06:09:41.144Z,9.365899
2022-09-18T06:10:41.432Z,9.365983
2022-09-18T06:11:42.115Z,9.366008
2022-09-18T06:12:41.085Z,9.365986
2022-09-18T06:13:41.066Z,9.366033
2022-09-18T06:14:41.104Z,9.366085
2022-09-18T06:15:41.053Z,9.366016
2022-09-18T06:16:42.572Z,9.365945
2022-09-18T06:17:41.033Z,9.365880
2022-09-18T06:18:41.007Z,9.365756
2022-09-18T06:19:41.041Z,9.365617
2022-09-18T06:20:40.996Z,9.365817
2022-09-18T06:21:41.051Z,9.365857
2022-09-18T06:22:40.961Z,9.365888
2022-09-18T06:23:40.999Z,9.365977
2022-09-18T06:24:40.961Z,9.366016
2022-09-18T06:25:40.932Z,9.366132
2022-09-18T06:26:40.933Z,9.366080
2022-09-18T06:27:40.906Z,9.365936
2022-09-18T06:28:40.896Z,9.365962
2022-09-18T06:29:40.892Z,9.366037
2022-09-18T06:30:40.893Z,9.365982
2022-09-18T06:31:40.957Z,9.365895
2022-09-18T06:32:40.864Z,9.365980
2022-09-18T06:33:40.915Z,9.366009
2022-09-18T06:34:40.832Z,9.365965
2022-09-18T06:35:40.837Z,9.365950
2022-09-18T06:36:40.806Z,9.365972
2022-09-18T06:37:40.861Z,9.366044
2022-09-18T06:38:41.793Z,9.365917
2022-09-18T06:39:40.766Z,9.366014
2022-09-18T06:40:40.845Z,9.365918
2022-09-18T06:41:40.758Z,9.365788
2022-09-18T06:42:45.263Z,9.365883
2022-09-18T06:43:41.725Z,9.365814
2022-09-18T06:44:40.710Z,9.365973
2022-09-18T06:45:40.744Z,9.366000
2022-09-18T06:46:40.733Z,9.366044
2022-09-18T06:47:40.673Z,9.366218
2022-09-18T06:48:40.659Z,9.366007
2022-09-18T06:49:41.655Z,9.366116
2022-09-18T06:50:40.629Z,9.366094
2022-09-18T06:51:40.645Z,9.366082
2022-09-18T06:52:40.616Z,9.365732
2022-09-18T06:53:40.684Z,9.366062
2022-09-18T06:54:40.592Z,9.366158
2022-09-18T06:55:41.579Z,9.366118
2022-09-18T06:56:41.262Z,9.366224
2022-09-18T06:57:40.563Z,9.366370
2022-09-18T06:58:40.556Z,9.365846
2022-09-18T06:59:40.547Z,9.365929
2022-09-18T07:00:40.554Z,9.365997
2022-09-18T07:01:40.594Z,9.366126
2022-09-18T07:02:40.495Z,9.366089
2022-09-18T07:03:40.491Z,9.366035
2022-09-18T07:04:40.488Z,9.366119
2022-09-18T07:05:41.084Z,9.366037
2022-09-18T07:06:40.469Z,9.366122
2022-09-18T07:07:40.452Z,9.365947
2022-09-18T07:08:40.445Z,9.365878
2022-09-18T07:09:40.517Z,9.365935
2022-09-18T07:10:40.437Z,9.366051
2022-09-18T07:11:40.425Z,9.365964
2022-09-18T07:12:40.398Z,9.365873
2022-09-18T07:13:40.383Z,9.365870
2022-09-18T07:14:40.377Z,9.365842
2022-09-18T07:15:40.374Z,9.365924
2022-09-18T07:16:40.415Z,9.365978
2022-09-18T07:17:40.333Z,9.365931
2022-09-18T07:18:40.336Z,9.365901
2022-09-18T07:19:40.316Z,9.366032
2022-09-18T07:20:40.304Z,9.365995
2022-09-18T07:21:40.329Z,9.366025
2022-09-18T07:22:44.908Z,9.365983
2022-09-18T07:23:40.312Z,9.365951
2022-09-18T07:24:40.253Z,9.366076
2022-09-18T07:25:40.334Z,9.366063
2022-09-18T07:26:40.247Z,9.366179
2022-09-18T07:27:40.233Z,9.366293
2022-09-18T07:28:40.228Z,9.366434
2022-09-18T07:29:40.208Z,9.366487
2022-09-18T07:30:40.209Z,9.366518
2022-09-18T07:31:40.234Z,9.366107
2022-09-18T07:32:40.197Z,9.366072
2022-09-18T07:33:40.158Z,9.366073
2022-09-18T07:34:40.151Z,9.366106
2022-09-18T07:35:40.150Z,9.366094
2022-09-18T07:36:40.126Z,9.366013
2022-09-18T07:37:40.154Z,9.365964
2022-09-18T07:38:40.114Z,9.365964
2022-09-18T07:39:40.085Z,9.366048
2022-09-18T07:40:40.188Z,9.366048
2022-09-18T07:41:40.149Z,9.365874
2022-09-18T07:42:40.100Z,9.365984
2022-09-18T07:43:40.043Z,9.366019
2022-09-18T07:44:40.029Z,9.366094
2022-09-18T07:45:40.024Z,9.366063
2022-09-18T07:46:40.093Z,9.366052
2022-09-18T07:47:40.005Z,9.366009
2022-09-18T07:48:40.005Z,9.366076
2022-09-18T07:49:39.980Z,9.365937
2022-09-18T07:50:39.954Z,9.365957
2022-09-18T07:51:39.955Z,9.365975
2022-09-18T07:52:39.934Z,9.365981
2022-09-18T07:53:39.953Z,9.365925
2022-09-18T07:54:39.911Z,9.365905
2022-09-18T07:55:39.907Z,9.366124
2022-09-18T07:56:43.571Z,9.366127
2022-09-18T07:57:40.969Z,9.366140
2022-09-18T07:58:39.922Z,9.366057
2022-09-18T07:59:39.848Z,9.366039
2022-09-18T08:00:39.868Z,9.366090
2022-09-18T08:01:39.913Z,9.366028
2022-09-18T08:02:39.923Z,9.365984
2022-09-18T08:03:41.549Z,9.366002
2022-09-18T08:04:39.814Z,9.366017
2022-09-18T08:05:39.799Z,9.365978
2022-09-18T08:06:39.770Z,9.365983
2022-09-18T08:07:39.776Z,9.365977
2022-09-18T08:08:39.768Z,9.366028
2022-09-18T08:09:39.740Z,9.365958
2022-09-18T08:10:39.836Z,9.365851
2022-09-18T08:11:39.736Z,9.365836
2022-09-18T08:12:39.715Z,9.365923
2022-09-18T08:13:39.832Z,9.365891
2022-09-18T08:14:39.691Z,9.365507
2022-09-18T08:15:39.686Z,9.365561
2022-09-18T08:16:39.777Z,9.365868
2022-09-18T08:17:39.651Z,9.365911
2022-09-18T08:18:39.697Z,9.365936
2022-09-18T08:19:39.634Z,9.365930
2022-09-18T08:20:39.623Z,9.365952
2022-09-18T08:21:39.616Z,9.365967
2022-09-18T08:22:39.604Z,9.365954
2022-09-18T08:23:39.582Z,9.366052
2022-09-18T08:24:39.597Z,9.365937
2022-09-18T08:25:39.584Z,9.365942
2022-09-18T08:26:39.560Z,9.365994
2022-09-18T08:27:39.544Z,9.365986
2022-09-18T08:28:39.542Z,9.366082
2022-09-18T08:29:39.623Z,9.365974
2022-09-18T08:30:39.498Z,9.365910
2022-09-18T08:31:39.575Z,9.365952
2022-09-18T08:32:39.478Z,9.365937
2022-09-18T08:33:39.465Z,9.365977
2022-09-18T08:34:39.482Z,9.366035
2022-09-18T08:35:39.437Z,9.365952
2022-09-18T08:36:39.429Z,9.365991
2022-09-18T08:37:39.428Z,9.365955
2022-09-18T08:38:39.410Z,9.365908
2022-09-18T08:39:39.430Z,9.366018
2022-09-18T08:40:39.488Z,9.366004
2022-09-18T08:41:39.376Z,9.365961
2022-09-18T08:42:39.371Z,9.366108
2022-09-18T08:43:39.364Z,9.366212
2022-09-18T08:44:39.353Z,9.366222
2022-09-18T08:45:39.428Z,9.366201
2022-09-18T08:46:39.345Z,9.365965
2022-09-18T08:47:39.309Z,9.365965
2022-09-18T08:48:39.305Z,9.366018
2022-09-18T08:49:39.298Z,9.366029
2022-09-18T08:50:39.269Z,9.365992
2022-09-18T08:51:39.256Z,9.365948
2022-09-18T08:52:39.245Z,9.365977
2022-09-18T08:53:39.232Z,9.366062
2022-09-18T08:54:39.265Z,9.366136
2022-09-18T08:55:39.357Z,9.366096
2022-09-18T08:56:39.209Z,9.366016
2022-09-18T08:57:39.192Z,9.365930
2022-09-18T08:58:39.180Z,9.365956
2022-09-18T08:59:39.204Z,9.366029
2022-09-18T09:00:39.214Z,9.366053
2022-09-18T09:01:39.243Z,9.366060
2022-09-18T09:02:39.150Z,9.365960
2022-09-18T09:03:39.130Z,9.365910
2022-09-18T09:04:39.193Z,9.365865
2022-09-18T09:05:39.125Z,9.365958
2022-09-18T09:06:39.080Z,9.366096
2022-09-18T09:07:39.093Z,9.366125
2022-09-18T09:08:39.065Z,9.365925
2022-09-18T09:09:39.046Z,9.365972
2022-09-18T09:10:39.066Z,9.365792
2022-09-18T09:11:39.016Z,9.365917
2022-09-18T09:12:39.017Z,9.365994
2022-09-18T09:13:39.008Z,9.366046
2022-09-18T09:14:56.792Z,9.365977
2022-09-18T09:15:40.026Z,9.365968
2022-09-18T09:16:39.004Z,9.366101
2022-09-18T09:17:39.041Z,9.365675
2022-09-18T09:18:38.945Z,9.365547
2022-09-18T09:19:38.940Z,9.366086
2022-09-18T09:20:39.064Z,9.366041
2022-09-18T09:21:38.903Z,9.365981
2022-09-18T09:22:38.910Z,9.365760
2022-09-18T09:23:38.882Z,9.366063
2022-09-18T09:24:38.890Z,9.365959
2022-09-18T09:25:38.865Z,9.365988
2022-09-18T09:26:38.872Z,9.365890
2022-09-18T09:27:38.844Z,9.365956
2022-09-18T09:28:38.821Z,9.366015
2022-09-18T09:29:38.819Z,9.366069
2022-09-18T09:30:38.801Z,9.366055
2022-09-18T09:31:38.865Z,9.365997
2022-09-18T09:32:38.777Z,9.366128
2022-09-18T09:33:38.841Z,9.366024
2022-09-18T09:34:38.753Z,9.365961
2022-09-18T09:35:38.751Z,9.366062
2022-09-18T09:36:38.782Z,9.366082
2022-09-18T09:37:38.728Z,9.366134
2022-09-18T09:38:38.720Z,9.366092
2022-09-18T09:39:38.701Z,9.366019
2022-09-18T09:40:38.750Z,9.365838
2022-09-18T09:41:38.712Z,9.365799
2022-09-18T09:42:38.669Z,9.365849
2022-09-18T09:43:38.646Z,9.365907
2022-09-18T09:44:38.654Z,9.365859
2022-09-18T09:45:38.630Z,9.365808
2022-09-18T09:46:38.668Z,9.365745
2022-09-18T09:47:38.637Z,9.365799
2022-09-18T09:48:38.590Z,9.365599
2022-09-18T09:49:38.655Z,9.365758
2022-09-18T09:50:39.056Z,9.366199
2022-09-18T09:51:38.566Z,9.366160
2022-09-18T09:52:38.578Z,9.366217
2022-09-18T09:53:38.549Z,9.365906
2022-09-18T09:54:38.543Z,9.365920
2022-09-18T09:55:38.523Z,9.366024
2022-09-18T09:56:38.509Z,9.365889
2022-09-18T09:57:38.535Z,9.365958
2022-09-18T09:58:38.480Z,9.365964
2022-09-18T09:59:38.871Z,9.365993
2022-09-18T10:00:38.494Z,9.365955
2022-09-18T10:01:38.456Z,9.365829
2022-09-18T10:02:38.485Z,9.365893
2022-09-18T10:03:38.414Z,9.366020
2022-09-18T10:04:38.419Z,9.366078
2022-09-18T10:05:38.485Z,9.366053
2022-09-18T10:06:38.390Z,9.366053
2022-09-18T10:07:38.388Z,9.366048
2022-09-18T10:08:38.385Z,9.365903
2022-09-18T11:57:43.263Z,9.366044
2022-09-18T11:58:43.202Z,9.365858
2022-09-18T11:59:43.204Z,9.365964
2022-09-18T12:00:43.178Z,9.365902
2022-09-18T12:01:43.185Z,9.366139
2022-09-18T12:02:43.286Z,9.365978
2022-09-18T12:03:43.614Z,9.365993
2022-09-18T12:04:43.122Z,9.366179
2022-09-18T12:05:43.142Z,9.366177
2022-09-18T12:06:43.125Z,9.365906
2022-09-18T12:07:42.653Z,9.365719
2022-09-18T12:08:41.815Z,9.366224
2022-09-18T12:09:41.723Z,9.366228
2022-09-18T12:10:41.706Z,9.366057
2022-09-18T12:11:41.699Z,9.366006
2022-09-18T12:12:41.747Z,9.365992
2022-09-18T12:13:41.708Z,9.365996
2022-09-18T12:14:41.698Z,9.365945
2022-09-18T12:15:41.675Z,9.366166
2022-09-18T12:16:41.697Z,9.366019
2022-09-18T12:17:41.620Z,9.366006
2022-09-18T12:18:41.637Z,9.366038
2022-09-18T12:19:41.627Z,9.366060
2022-09-18T12:20:41.603Z,9.366081
2022-09-18T12:21:41.552Z,9.365880
2022-09-18T12:22:41.549Z,9.365913
2022-09-18T12:23:41.533Z,9.365781
2022-09-18T12:24:41.565Z,9.365863
2022-09-18T12:25:41.544Z,9.365973
2022-09-18T12:26:41.509Z,9.365910
2022-09-18T12:27:41.588Z,9.365806
2022-09-18T12:28:41.563Z,9.365901
2022-09-18T12:29:41.488Z,9.366096
2022-09-18T12:30:41.517Z,9.366184
2022-09-18T12:31:41.487Z,9.366033
2022-09-18T12:32:41.425Z,9.366089
2022-09-18T12:33:41.447Z,9.365955
2022-09-18T12:34:41.458Z,9.366111
2022-09-18T12:35:41.389Z,9.366098
2022-09-18T12:36:41.422Z,9.365928
2022-09-18T12:37:41.361Z,9.365950
2022-09-18T12:38:41.371Z,9.365925
2022-09-18T12:39:42.070Z,9.366011
2022-09-18T12:40:42.004Z,9.365928
2022-09-18T12:41:41.986Z,9.365976
2022-09-18T12:42:41.980Z,9.365996
2022-09-18T12:43:41.985Z,9.365979
2022-09-18T12:44:42.078Z,9.366003
2022-09-18T12:45:42.037Z,9.366043
2022-09-18T12:46:41.909Z,9.365947
2022-09-18T12:47:43.405Z,9.365879
2022-09-18T12:48:42.091Z,9.365926
2022-09-18T12:50:17.071Z,9.366068
2022-09-18T12:50:41.850Z,9.366028
2022-09-18T12:51:41.885Z,9.365933
2022-09-18T12:53:00.287Z,9.365932
2022-09-18T12:53:41.815Z,9.365970
2022-09-18T12:54:41.815Z,9.365960
2022-09-18T12:55:41.802Z,9.365836
2022-09-18T12:56:41.821Z,9.365892
2022-09-18T12:57:41.768Z,9.365939
2022-09-18T12:58:41.753Z,9.365658
2022-09-18T12:59:41.738Z,9.365688
2022-09-18T13:00:41.876Z,9.365817
2022-09-18T13:01:41.708Z,9.365909
2022-09-18T13:02:41.726Z,9.366001
2022-09-18T13:03:41.692Z,9.365913
2022-09-18T13:04:41.686Z,9.365981
2022-09-18T13:05:41.740Z,9.365991
2022-09-18T13:06:41.648Z,9.365993
2022-09-18T13:07:41.663Z,9.365870
2022-09-18T13:08:41.668Z,9.365985
2022-09-18T13:09:41.652Z,9.365912
2022-09-18T13:10:41.637Z,9.366013
2022-09-18T13:11:41.576Z,9.365982
2022-09-18T13:12:41.606Z,9.365878
2022-09-18T13:13:41.546Z,9.365983
2022-09-18T13:14:41.540Z,9.365930
2022-09-18T13:15:41.563Z,9.365893
2022-09-18T13:16:42.376Z,9.365983
2022-09-18T13:17:42.261Z,9.365859
2022-09-18T13:18:42.253Z,9.365859
2022-09-18T13:19:42.229Z,9.365859
2022-09-18T13:20:42.224Z,9.365424
2022-09-18T13:21:42.221Z,9.366140
2022-09-18T13:22:42.179Z,9.366002
2022-09-18T13:23:42.182Z,9.365994
2022-09-18T13:24:42.197Z,9.365910
2022-09-18T13:25:42.179Z,9.365894
2022-09-18T13:26:42.161Z,9.366019
2022-09-18T13:27:42.155Z,9.365996
2022-09-18T13:28:42.101Z,9.366026
2022-09-18T13:29:42.091Z,9.365950
2022-09-18T13:30:42.140Z,9.366036
2022-09-18T13:31:42.113Z,9.366081
2022-09-18T13:32:42.146Z,9.366101